Météo

Actualisé à 6h30, Lille

icon

T : 14 °C / H : 100 %
Pression : 1022 Hpa
Vent calme : 0 Km/h
Brume
Nuages fragmentés à 500 pieds


2024/07/24 05:30 LFQQ 240530Z AUTO 00000KT 6000 NSC 14/14 Q1022 TEMPO 4000 BR BKN005

Mots clés

Internet web infographiste flyers illustrateur graphiste webmaster PAO assistance informatique logo image invitation affiche création réalisation conception site vitrine voeux carte visite publication publicité impression plaquette charte graphique identité visuelle maintenance freelance


CSS Valide ! Valid HTML 5.0
callicom.gif flo.jpg
logo-5.jpg logo.jpg
logo_Flodp2.jpg logo_les-dauphines-de-fretin1_couleur-Nb.jpg
sofetec.jpg